sensor_id;sensor_type;location;lat;lon;timestamp;P1;durP1;ratioP1;P2;durP2;ratioP2
9234;SDS011;4652;42.716;23.218;2022-10-15T09:39:42;7.93;;;6.03;;
9234;SDS011;4652;42.716;23.218;2022-10-15T09:46:43;6.07;;;5.30;;
9234;SDS011;4652;42.716;23.218;2022-10-15T09:53:29;5.23;;;4.73;;
9234;SDS011;4652;42.716;23.218;2022-10-15T10:00:22;7.03;;;5.20;;
9234;SDS011;4652;42.716;23.218;2022-10-15T10:07:05;6.00;;;4.70;;
9234;SDS011;4652;42.716;23.218;2022-10-15T10:13:51;6.43;;;5.33;;
9234;SDS011;4652;42.716;23.218;2022-10-15T10:20:37;4.40;;;3.97;;
9234;SDS011;4652;42.716;23.218;2022-10-15T10:27:34;4.97;;;4.47;;
9234;SDS011;4652;42.716;23.218;2022-10-15T10:34:17;5.47;;;4.63;;
9234;SDS011;4652;42.716;23.218;2022-10-15T10:41:07;5.00;;;4.50;;
9234;SDS011;4652;42.716;23.218;2022-10-15T10:47:50;4.80;;;4.30;;
9234;SDS011;4652;42.716;23.218;2022-10-15T10:54:32;5.17;;;4.17;;
9234;SDS011;4652;42.716;23.218;2022-10-15T11:01:16;8.93;;;5.60;;
9234;SDS011;4652;42.716;23.218;2022-10-15T11:07:59;7.57;;;5.70;;
9234;SDS011;4652;42.716;23.218;2022-10-15T11:14:52;5.10;;;4.03;;
9234;SDS011;4652;42.716;23.218;2022-10-15T11:21:42;8.80;;;6.67;;
9234;SDS011;4652;42.716;23.218;2022-10-15T11:28:39;8.97;;;5.43;;
9234;SDS011;4652;42.716;23.218;2022-10-15T11:35:33;5.03;;;3.80;;
9234;SDS011;4652;42.716;23.218;2022-10-15T11:42:24;4.83;;;2.70;;
9234;SDS011;4652;42.716;23.218;2022-10-15T11:49:17;3.70;;;3.30;;
9234;SDS011;4652;42.716;23.218;2022-10-15T11:56:09;3.40;;;3.20;;
9234;SDS011;4652;42.716;23.218;2022-10-15T12:02:55;2.70;;;2.50;;
9234;SDS011;4652;42.716;23.218;2022-10-15T12:09:45;3.80;;;3.20;;
9234;SDS011;4652;42.716;23.218;2022-10-15T12:16:32;3.53;;;3.13;;
9234;SDS011;4652;42.716;23.218;2022-10-15T12:23:24;4.00;;;2.80;;
9234;SDS011;4652;42.716;23.218;2022-10-15T12:30:22;4.03;;;3.63;;
9234;SDS011;4652;42.716;23.218;2022-10-15T12:37:14;4.23;;;2.73;;
9234;SDS011;4652;42.716;23.218;2022-10-15T12:44:04;5.47;;;3.87;;
9234;SDS011;4652;42.716;23.218;2022-10-15T12:50:49;4.77;;;3.60;;
9234;SDS011;4652;42.716;23.218;2022-10-15T12:57:52;6.90;;;6.10;;
9234;SDS011;4652;42.716;23.218;2022-10-15T13:04:38;3.97;;;3.67;;
9234;SDS011;4652;42.716;23.218;2022-10-15T13:11:23;4.90;;;3.97;;
9234;SDS011;4652;42.716;23.218;2022-10-15T13:18:10;4.43;;;3.33;;
9234;SDS011;4652;42.716;23.218;2022-10-15T13:24:56;4.40;;;3.17;;
9234;SDS011;4652;42.716;23.218;2022-10-15T13:31:38;6.50;;;4.80;;
9234;SDS011;4652;42.716;23.218;2022-10-15T13:38:24;5.07;;;3.17;;
9234;SDS011;4652;42.716;23.218;2022-10-15T13:45:16;5.60;;;3.80;;
9234;SDS011;4652;42.716;23.218;2022-10-15T13:51:58;3.80;;;3.47;;
9234;SDS011;4652;42.716;23.218;2022-10-15T13:58:41;5.53;;;3.60;;
9234;SDS011;4652;42.716;23.218;2022-10-15T14:05:25;6.53;;;3.20;;
9234;SDS011;4652;42.716;23.218;2022-10-15T14:12:07;3.50;;;3.20;;
9234;SDS011;4652;42.716;23.218;2022-10-15T14:18:52;5.63;;;3.27;;
9234;SDS011;4652;42.716;23.218;2022-10-15T14:25:38;3.30;;;3.00;;
9234;SDS011;4652;42.716;23.218;2022-10-15T14:32:22;8.33;;;5.67;;
9234;SDS011;4652;42.716;23.218;2022-10-15T14:39:17;6.90;;;3.67;;
9234;SDS011;4652;42.716;23.218;2022-10-15T14:46:10;8.63;;;4.30;;
9234;SDS011;4652;42.716;23.218;2022-10-15T14:52:56;5.23;;;3.30;;
9234;SDS011;4652;42.716;23.218;2022-10-15T14:59:40;6.53;;;2.80;;
9234;SDS011;4652;42.716;23.218;2022-10-15T15:06:23;4.30;;;3.23;;
9234;SDS011;4652;42.716;23.218;2022-10-15T15:13:05;4.30;;;3.33;;
9234;SDS011;4652;42.716;23.218;2022-10-15T15:19:48;7.60;;;4.60;;
9234;SDS011;4652;42.716;23.218;2022-10-15T15:26:33;4.70;;;3.10;;
9234;SDS011;4652;42.716;23.218;2022-10-15T15:33:15;5.93;;;5.30;;
9234;SDS011;4652;42.716;23.218;2022-10-15T15:39:57;8.07;;;5.90;;
9234;SDS011;4652;42.716;23.218;2022-10-15T15:46:41;8.00;;;6.10;;
9234;SDS011;4652;42.716;23.218;2022-10-15T15:53:23;8.53;;;5.50;;
9234;SDS011;4652;42.716;23.218;2022-10-15T16:00:05;8.53;;;5.67;;
9234;SDS011;4652;42.716;23.218;2022-10-15T16:06:50;6.60;;;5.00;;
9234;SDS011;4652;42.716;23.218;2022-10-15T16:13:33;7.07;;;5.23;;
9234;SDS011;4652;42.716;23.218;2022-10-15T16:20:15;7.93;;;5.30;;
9234;SDS011;4652;42.716;23.218;2022-10-15T16:26:59;13.87;;;8.63;;
9234;SDS011;4652;42.716;23.218;2022-10-15T16:33:41;8.63;;;6.17;;
9234;SDS011;4652;42.716;23.218;2022-10-15T16:40:23;6.23;;;4.90;;
9234;SDS011;4652;42.716;23.218;2022-10-15T16:47:07;9.17;;;6.83;;
9234;SDS011;4652;42.716;23.218;2022-10-15T16:53:49;6.07;;;5.47;;
9234;SDS011;4652;42.716;23.218;2022-10-15T17:00:32;10.67;;;7.17;;
9234;SDS011;4652;42.716;23.218;2022-10-15T17:07:15;7.87;;;5.90;;
9234;SDS011;4652;42.716;23.218;2022-10-15T17:13:58;8.90;;;6.63;;
9234;SDS011;4652;42.716;23.218;2022-10-15T17:20:42;12.23;;;10.03;;
9234;SDS011;4652;42.716;23.218;2022-10-15T17:27:26;12.30;;;7.87;;
9234;SDS011;4652;42.716;23.218;2022-10-15T17:34:09;11.53;;;8.50;;
9234;SDS011;4652;42.716;23.218;2022-10-15T17:40:52;12.67;;;9.23;;
9234;SDS011;4652;42.716;23.218;2022-10-15T17:47:36;8.83;;;5.73;;
9234;SDS011;4652;42.716;23.218;2022-10-15T17:54:18;8.23;;;7.23;;
9234;SDS011;4652;42.716;23.218;2022-10-15T18:01:01;11.10;;;7.93;;
9234;SDS011;4652;42.716;23.218;2022-10-15T18:07:44;9.53;;;7.37;;
9234;SDS011;4652;42.716;23.218;2022-10-15T18:14:26;9.63;;;7.90;;
9234;SDS011;4652;42.716;23.218;2022-10-15T18:21:08;11.37;;;7.90;;
9234;SDS011;4652;42.716;23.218;2022-10-15T18:27:53;12.77;;;6.63;;
9234;SDS011;4652;42.716;23.218;2022-10-15T18:34:34;9.50;;;6.60;;
9234;SDS011;4652;42.716;23.218;2022-10-15T18:41:18;11.03;;;7.73;;
9234;SDS011;4652;42.716;23.218;2022-10-15T18:48:03;9.00;;;6.90;;
9234;SDS011;4652;42.716;23.218;2022-10-15T18:54:46;11.17;;;7.83;;
9234;SDS011;4652;42.716;23.218;2022-10-15T19:01:28;9.53;;;7.60;;
9234;SDS011;4652;42.716;23.218;2022-10-15T19:08:14;10.03;;;7.30;;
9234;SDS011;4652;42.716;23.218;2022-10-15T19:14:56;9.17;;;7.73;;
9234;SDS011;4652;42.716;23.218;2022-10-15T19:21:38;8.53;;;6.87;;
9234;SDS011;4652;42.716;23.218;2022-10-15T19:28:21;7.63;;;6.63;;
9234;SDS011;4652;42.716;23.218;2022-10-15T19:35:04;7.97;;;6.67;;
9234;SDS011;4652;42.716;23.218;2022-10-15T19:41:46;11.93;;;8.20;;
9234;SDS011;4652;42.716;23.218;2022-10-15T19:48:30;7.90;;;7.03;;
9234;SDS011;4652;42.716;23.218;2022-10-15T19:55:13;9.20;;;6.80;;
9234;SDS011;4652;42.716;23.218;2022-10-15T20:01:54;9.13;;;6.97;;
9234;SDS011;4652;42.716;23.218;2022-10-15T20:08:38;7.47;;;6.73;;
9234;SDS011;4652;42.716;23.218;2022-10-15T20:15:20;10.30;;;7.37;;
9234;SDS011;4652;42.716;23.218;2022-10-15T20:22:02;12.07;;;8.73;;
9234;SDS011;4652;42.716;23.218;2022-10-15T20:28:45;10.50;;;8.70;;
9234;SDS011;4652;42.716;23.218;2022-10-15T20:35:27;11.87;;;8.33;;
9234;SDS011;4652;42.716;23.218;2022-10-15T20:42:10;12.17;;;8.90;;
9234;SDS011;4652;42.716;23.218;2022-10-15T20:48:53;12.70;;;8.60;;
9234;SDS011;4652;42.716;23.218;2022-10-15T20:55:39;10.10;;;8.63;;
9234;SDS011;4652;42.716;23.218;2022-10-15T21:02:22;12.00;;;8.60;;
9234;SDS011;4652;42.716;23.218;2022-10-15T21:09:05;11.70;;;8.83;;
9234;SDS011;4652;42.716;23.218;2022-10-15T21:15:47;11.70;;;8.90;;
9234;SDS011;4652;42.716;23.218;2022-10-15T21:22:30;13.07;;;8.80;;
9234;SDS011;4652;42.716;23.218;2022-10-15T21:29:14;10.70;;;9.00;;
9234;SDS011;4652;42.716;23.218;2022-10-15T21:35:56;13.73;;;10.00;;
9234;SDS011;4652;42.716;23.218;2022-10-15T21:42:38;16.53;;;10.97;;
9234;SDS011;4652;42.716;23.218;2022-10-15T21:49:21;15.27;;;10.80;;
9234;SDS011;4652;42.716;23.218;2022-10-15T21:56:04;15.97;;;11.30;;
9234;SDS011;4652;42.716;23.218;2022-10-15T22:02:48;15.53;;;10.70;;
9234;SDS011;4652;42.716;23.218;2022-10-15T22:09:32;14.53;;;10.33;;
9234;SDS011;4652;42.716;23.218;2022-10-15T22:16:16;15.40;;;10.80;;
9234;SDS011;4652;42.716;23.218;2022-10-15T22:22:58;14.10;;;9.67;;
9234;SDS011;4652;42.716;23.218;2022-10-15T22:29:42;14.90;;;10.10;;
9234;SDS011;4652;42.716;23.218;2022-10-15T22:36:25;15.73;;;10.03;;
9234;SDS011;4652;42.716;23.218;2022-10-15T22:43:08;12.03;;;8.97;;
9234;SDS011;4652;42.716;23.218;2022-10-15T22:49:52;9.37;;;8.20;;
9234;SDS011;4652;42.716;23.218;2022-10-15T22:56:34;11.10;;;7.77;;
9234;SDS011;4652;42.716;23.218;2022-10-15T23:03:17;10.77;;;8.27;;
9234;SDS011;4652;42.716;23.218;2022-10-15T23:10:01;8.50;;;7.70;;
9234;SDS011;4652;42.716;23.218;2022-10-15T23:16:44;10.43;;;7.00;;
9234;SDS011;4652;42.716;23.218;2022-10-15T23:23:28;10.60;;;7.93;;
9234;SDS011;4652;42.716;23.218;2022-10-15T23:30:11;7.97;;;7.07;;
9234;SDS011;4652;42.716;23.218;2022-10-15T23:36:53;13.03;;;7.87;;
9234;SDS011;4652;42.716;23.218;2022-10-15T23:43:36;10.43;;;7.50;;
9234;SDS011;4652;42.716;23.218;2022-10-15T23:50:21;9.83;;;7.77;;
9234;SDS011;4652;42.716;23.218;2022-10-15T23:57:02;9.20;;;7.50;;
